createdAt,value
2023-11-12T00:01:02.534Z,75.00
2023-11-12T00:03:50.938Z,81.00
2023-11-12T00:06:19.018Z,81.30
2023-11-12T00:08:47.765Z,78.80
2023-11-12T00:11:15.981Z,74.60
2023-11-12T00:13:43.909Z,80.40
2023-11-12T00:16:12.082Z,77.20
2023-11-12T00:18:40.723Z,76.30
2023-11-12T00:21:08.646Z,76.10
2023-11-12T00:23:37.558Z,77.50
2023-11-12T00:26:05.765Z,74.80
2023-11-12T00:28:34.139Z,71.50
2023-11-12T00:31:02.069Z,69.90
2023-11-12T00:33:31.046Z,68.00
2023-11-12T00:35:59.372Z,63.50
2023-11-12T00:38:27.275Z,62.10
2023-11-12T00:40:56.395Z,58.10
2023-11-12T00:43:28.391Z,58.20
2023-11-12T00:46:02.528Z,59.30
2023-11-12T00:48:30.503Z,59.00
2023-11-12T00:50:58.580Z,57.50
2023-11-12T00:53:28.421Z,59.10
2023-11-12T00:56:00.590Z,59.20
2023-11-12T00:58:28.872Z,60.10
2023-11-12T01:00:56.681Z,63.50
2023-11-12T01:03:29.560Z,67.00
2023-11-12T01:05:57.604Z,67.40
2023-11-12T01:08:26.564Z,72.30
2023-11-12T01:10:55.540Z,70.70
2023-11-12T01:13:23.734Z,72.10
2023-11-12T01:15:53.058Z,71.10
2023-11-12T01:18:22.390Z,68.50
2023-11-12T01:20:50.633Z,69.30
2023-11-12T01:23:18.604Z,70.20
2023-11-12T01:25:46.857Z,71.40
2023-11-12T01:28:14.731Z,72.80
2023-11-12T01:30:42.760Z,76.50
2023-11-12T01:33:11.624Z,76.60
2023-11-12T01:35:39.920Z,74.90
2023-11-12T01:38:08.447Z,67.40
2023-11-12T01:40:42.518Z,66.20
2023-11-12T01:43:11.222Z,65.40
2023-11-12T01:45:39.278Z,66.20
2023-11-12T01:48:09.798Z,65.70
2023-11-12T01:50:39.455Z,63.80
2023-11-12T01:53:10.567Z,64.10
2023-11-12T01:55:39.045Z,64.00
2023-11-12T01:58:10.548Z,63.50
2023-11-12T02:00:41.092Z,62.80
2023-11-12T02:03:12.962Z,63.70
2023-11-12T02:05:41.370Z,60.80
2023-11-12T02:08:10.220Z,62.40
2023-11-12T02:10:38.245Z,63.50
2023-11-12T02:13:07.948Z,66.60
2023-11-12T02:15:36.144Z,68.70
2023-11-12T02:18:04.532Z,63.40
2023-11-12T02:20:32.665Z,60.70
2023-11-12T02:23:00.654Z,63.00
2023-11-12T02:25:28.583Z,61.00
2023-11-12T02:27:56.658Z,58.20
2023-11-12T02:30:25.387Z,58.50
2023-11-12T02:32:53.427Z,57.00
2023-11-12T02:35:21.299Z,56.10
2023-11-12T02:37:49.330Z,55.80
2023-11-12T02:40:17.612Z,56.90
2023-11-12T02:42:45.586Z,55.80
2023-11-12T02:45:14.466Z,56.30
2023-11-12T02:47:44.568Z,53.60
2023-11-12T02:50:26.229Z,53.40
2023-11-12T02:52:55.139Z,52.70
2023-11-12T02:55:23.164Z,54.00
2023-11-12T02:57:51.276Z,52.90
2023-11-12T03:00:19.514Z,53.30
2023-11-12T03:02:49.142Z,51.20
2023-11-12T03:05:17.087Z,50.90
2023-11-12T03:07:45.064Z,48.30
2023-11-12T03:10:13.138Z,48.10
2023-11-12T03:12:41.126Z,46.80
2023-11-12T03:15:11.128Z,47.00
2023-11-12T03:17:40.276Z,45.20
2023-11-12T03:20:13.325Z,46.20
2023-11-12T03:22:41.261Z,46.80
2023-11-12T03:25:11.527Z,47.80
2023-11-12T03:27:39.988Z,46.80
2023-11-12T03:30:10.579Z,47.10
2023-11-12T03:32:39.936Z,45.80
2023-11-12T03:35:09.606Z,46.20
2023-11-12T03:37:37.865Z,44.40
2023-11-12T03:40:06.419Z,44.90
2023-11-12T03:42:34.500Z,44.90
2023-11-12T03:45:04.720Z,44.80
2023-11-12T03:47:32.968Z,44.30
2023-11-12T03:50:01.015Z,44.90
2023-11-12T03:52:28.979Z,44.20
2023-11-12T03:54:57.004Z,43.80
2023-11-12T03:57:25.384Z,44.00
2023-11-12T03:59:53.815Z,43.60
2023-11-12T04:02:22.316Z,42.90
2023-11-12T04:04:50.373Z,42.40
2023-11-12T04:07:18.528Z,43.10
2023-11-12T04:09:48.268Z,42.50
2023-11-12T04:12:16.287Z,42.60
2023-11-12T04:14:45.724Z,41.60
2023-11-12T04:17:14.284Z,43.70
2023-11-12T04:19:42.235Z,44.00
2023-11-12T04:22:10.200Z,42.90
2023-11-12T04:24:38.164Z,43.80
2023-11-12T04:27:07.768Z,42.80
2023-11-12T04:29:36.380Z,44.20
2023-11-12T04:32:05.753Z,42.60
2023-11-12T04:34:33.784Z,40.60
2023-11-12T04:37:01.871Z,40.90
2023-11-12T04:39:30.163Z,42.30
2023-11-12T04:42:01.009Z,41.00
2023-11-12T04:44:28.937Z,39.70
2023-11-12T04:46:56.787Z,40.70
2023-11-12T04:49:25.543Z,39.30
2023-11-12T04:51:54.991Z,40.20
2023-11-12T04:54:22.970Z,38.80
2023-11-12T04:56:50.923Z,37.90
2023-11-12T04:59:18.963Z,37.90
2023-11-12T05:01:47.217Z,37.00
2023-11-12T05:04:15.381Z,36.80
2023-11-12T05:06:45.739Z,36.20
2023-11-12T05:09:14.966Z,38.00
2023-11-12T05:12:10.975Z,36.00
2023-11-12T05:16:13.430Z,29.30
2023-11-12T05:18:42.117Z,36.00
2023-11-12T05:21:10.346Z,35.10
2023-11-12T05:23:40.289Z,34.40
2023-11-12T05:26:08.354Z,34.90
2023-11-12T05:30:01.259Z,27.20
2023-11-12T05:33:42.628Z,26.50
2023-11-12T05:36:10.800Z,32.30
2023-11-12T05:38:40.006Z,33.50
2023-11-12T05:41:09.095Z,33.30
2023-11-12T05:43:37.270Z,32.00
2023-11-12T05:46:09.627Z,32.20
2023-11-12T05:48:37.881Z,33.20
2023-11-12T05:51:10.507Z,32.20
2023-11-12T05:53:38.632Z,33.00
2023-11-12T05:56:08.319Z,31.20
2023-11-12T05:58:36.484Z,32.30
2023-11-12T06:01:04.702Z,31.40
2023-11-12T06:03:33.133Z,31.30
2023-11-12T06:06:01.376Z,29.10
2023-11-12T06:08:29.443Z,30.30
2023-11-12T06:10:57.828Z,29.10
2023-11-12T06:13:25.929Z,29.40
2023-11-12T06:15:54.834Z,29.20
2023-11-12T06:18:23.886Z,31.20
2023-11-12T06:20:53.200Z,30.80
2023-11-12T06:23:21.122Z,30.50
2023-11-12T06:25:49.414Z,31.40
2023-11-12T06:28:19.325Z,30.10
2023-11-12T06:30:47.540Z,30.70
2023-11-12T06:33:15.881Z,30.90
2023-11-12T06:35:45.040Z,30.20
2023-11-12T06:38:14.688Z,31.30
2023-11-12T06:40:42.714Z,30.30
2023-11-12T06:43:10.938Z,30.40
2023-11-12T06:45:40.076Z,31.80
2023-11-12T06:48:08.766Z,31.50
2023-11-12T06:50:36.686Z,31.30
2023-11-12T06:53:04.745Z,30.30
2023-11-12T06:55:34.195Z,31.20
2023-11-12T06:58:02.153Z,29.50
2023-11-12T07:00:30.107Z,29.50
2023-11-12T07:02:59.074Z,29.40
2023-11-12T07:08:10.783Z,24.00
2023-11-12T07:10:39.208Z,27.40
2023-11-12T07:13:07.478Z,27.30
2023-11-12T07:15:36.157Z,27.30
2023-11-12T07:18:04.238Z,27.40
2023-11-12T07:20:34.403Z,26.80
2023-11-12T07:23:02.679Z,25.70
2023-11-12T07:25:34.074Z,25.20
2023-11-12T07:28:02.147Z,25.40
2023-11-12T07:30:31.452Z,25.60
2023-11-12T07:32:59.568Z,23.80
2023-11-12T07:35:27.507Z,24.20
2023-11-12T07:37:55.458Z,22.30
2023-11-12T07:40:27.512Z,22.40
2023-11-12T07:42:57.818Z,21.50
2023-11-12T07:45:31.816Z,21.50
2023-11-12T07:48:08.254Z,21.30
2023-11-12T07:50:39.021Z,19.80
2023-11-12T07:53:07.082Z,20.30
2023-11-12T07:55:35.249Z,21.20
2023-11-12T07:58:04.005Z,20.70
2023-11-12T08:00:32.012Z,20.90
2023-11-12T08:03:00.204Z,20.60
2023-11-12T08:05:28.316Z,19.40
2023-11-12T08:07:56.524Z,20.70
2023-11-12T08:10:24.448Z,20.10
2023-11-12T08:12:53.556Z,20.80
2023-11-12T08:15:21.868Z,20.60
2023-11-12T08:17:50.960Z,19.40
2023-11-12T08:20:19.440Z,19.30
2023-11-12T08:22:48.309Z,19.50
2023-11-12T08:25:16.374Z,19.30
2023-11-12T08:27:44.720Z,18.00
2023-11-12T08:30:12.750Z,18.00
2023-11-12T08:32:40.984Z,17.50
2023-11-12T08:35:09.149Z,17.30
2023-11-12T08:37:37.337Z,17.20
2023-11-12T08:40:06.235Z,17.00
2023-11-12T08:42:35.170Z,16.50
2023-11-12T08:45:05.659Z,16.20
2023-11-12T08:47:33.620Z,15.60
2023-11-12T08:50:02.060Z,14.30
2023-11-12T08:53:07.963Z,11.80
2023-11-12T08:55:35.051Z,13.10
2023-11-12T08:58:01.849Z,12.60
2023-11-12T09:00:28.634Z,12.80
2023-11-12T09:02:55.201Z,12.20
2023-11-12T09:05:21.740Z,12.00
2023-11-12T09:07:50.721Z,11.40
2023-11-12T09:10:18.313Z,10.80
2023-11-12T09:12:45.207Z,11.20
2023-11-12T09:15:12.299Z,11.00
2023-11-12T09:17:39.104Z,11.60
2023-11-12T09:20:06.456Z,11.90
2023-11-12T09:22:33.978Z,11.10
2023-11-12T09:25:09.190Z,11.30
2023-11-12T09:27:38.532Z,10.50
2023-11-12T09:30:06.725Z,11.40
2023-11-12T09:32:37.920Z,11.80
2023-11-12T09:35:06.544Z,11.40
2023-11-12T09:37:33.215Z,11.30
2023-11-12T09:40:00.845Z,11.10
2023-11-12T09:42:30.614Z,11.20
2023-11-12T09:44:59.941Z,11.60
2023-11-12T09:47:42.558Z,12.40
2023-11-12T09:50:13.220Z,12.10
2023-11-12T09:52:40.315Z,12.40
2023-11-12T09:55:07.873Z,12.50
2023-11-12T09:57:35.846Z,12.30
2023-11-12T10:00:05.867Z,11.30
2023-11-12T10:02:34.536Z,11.40
2023-11-12T10:05:11.064Z,12.40
2023-11-12T10:07:41.520Z,13.50
2023-11-12T10:10:30.250Z,13.20
2023-11-12T10:12:57.562Z,13.50
2023-11-12T10:15:26.420Z,13.60
2023-11-12T10:17:57.552Z,13.90
2023-11-12T10:20:32.583Z,13.80
2023-11-12T10:23:00.162Z,14.50
2023-11-12T10:25:42.734Z,14.70
2023-11-12T10:28:12.709Z,14.70
2023-11-12T10:30:44.107Z,15.40
2023-11-12T10:33:24.868Z,17.20
2023-11-12T10:35:51.669Z,15.70
2023-11-12T10:38:18.636Z,16.00
2023-11-12T10:41:05.206Z,17.60
2023-11-12T10:43:32.970Z,17.50
2023-11-12T10:46:08.100Z,17.50
2023-11-12T10:48:38.777Z,16.90
2023-11-12T10:51:07.421Z,16.60
2023-11-12T10:53:36.883Z,15.80
2023-11-12T10:56:06.464Z,15.30
2023-11-12T10:58:33.755Z,14.80
2023-11-12T11:01:02.059Z,15.00
2023-11-12T11:03:30.806Z,14.20
2023-11-12T11:06:02.364Z,14.60
2023-11-12T11:08:36.751Z,14.40
2023-11-12T11:11:09.302Z,14.00
2023-11-12T11:13:37.544Z,14.60
2023-11-12T11:16:04.628Z,15.20
2023-11-12T11:18:34.534Z,14.70
2023-11-12T11:21:11.547Z,15.20
2023-11-12T11:23:56.768Z,15.10
2023-11-12T11:26:33.669Z,16.20
2023-11-12T11:29:05.193Z,15.70
2023-11-12T11:31:32.613Z,17.20
2023-11-12T11:34:00.836Z,17.40
2023-11-12T11:36:27.731Z,17.60
2023-11-12T11:39:07.091Z,18.20
2023-11-12T11:41:35.078Z,17.80
2023-11-12T11:44:33.593Z,17.60
2023-11-12T11:47:09.638Z,19.10
2023-11-12T11:49:38.629Z,19.40
2023-11-12T11:52:06.551Z,19.90
2023-11-12T11:54:34.578Z,20.40
2023-11-12T11:57:02.152Z,20.70
2023-11-12T11:59:35.952Z,21.60
2023-11-12T12:02:06.543Z,21.30
2023-11-12T12:04:33.725Z,21.60
2023-11-12T12:07:00.410Z,23.10
2023-11-12T12:09:27.276Z,24.70
2023-11-12T12:11:54.256Z,25.30
2023-11-12T12:14:22.603Z,26.80
2023-11-12T12:16:49.473Z,27.60
2023-11-12T12:19:24.233Z,27.70
2023-11-12T12:21:52.403Z,28.90
2023-11-12T12:24:21.863Z,27.80
2023-11-12T12:26:48.559Z,29.00
2023-11-12T12:29:17.518Z,29.20
2023-11-12T12:31:45.295Z,28.80
2023-11-12T12:34:12.994Z,28.00
2023-11-12T12:36:39.750Z,28.20
2023-11-12T12:39:10.344Z,28.30
2023-11-12T12:41:38.644Z,27.10
2023-11-12T12:44:05.402Z,26.70
2023-11-12T12:46:47.618Z,27.20
2023-11-12T12:49:31.113Z,27.30
2023-11-12T12:52:00.197Z,27.40
2023-11-12T12:54:30.098Z,27.40
2023-11-12T12:57:01.565Z,26.40
2023-11-12T12:59:38.165Z,25.80
2023-11-12T13:02:05.356Z,25.40
2023-11-12T13:04:35.598Z,26.20
2023-11-12T13:07:07.002Z,26.40
2023-11-12T13:09:34.165Z,25.60
2023-11-12T13:12:04.533Z,26.40
2023-11-12T13:14:34.564Z,24.40
2023-11-12T13:17:05.196Z,25.30
2023-11-12T13:19:33.883Z,25.80
2023-11-12T13:22:03.309Z,24.70
2023-11-12T13:24:30.822Z,23.50
2023-11-12T13:26:58.284Z,25.50
2023-11-12T13:29:27.903Z,25.00
2023-11-12T13:31:59.806Z,25.80
2023-11-12T13:34:26.554Z,25.60
2023-11-12T13:36:53.428Z,24.20
2023-11-12T13:39:20.474Z,23.80
2023-11-12T13:41:50.209Z,22.80
2023-11-12T13:44:19.167Z,21.60
2023-11-12T13:46:46.296Z,21.20
2023-11-12T13:49:16.205Z,20.60
2023-11-12T13:51:42.950Z,21.50
2023-11-12T13:54:13.434Z,21.00
2023-11-12T13:56:43.113Z,20.60
2023-11-12T13:59:09.846Z,20.90
2023-11-12T14:01:36.903Z,21.70
2023-11-12T14:04:08.165Z,20.80
2023-11-12T14:06:34.904Z,21.20
2023-11-12T14:09:01.750Z,20.40
2023-11-12T14:11:28.570Z,20.20
2023-11-12T14:13:56.340Z,19.90
2023-11-12T14:16:23.836Z,20.30
2023-11-12T14:18:50.405Z,20.00
2023-11-12T14:21:17.376Z,19.40
2023-11-12T14:23:44.107Z,18.50
2023-11-12T14:26:11.110Z,18.40
2023-11-12T14:28:39.377Z,18.40
2023-11-12T14:31:11.216Z,17.90
2023-11-12T14:33:40.095Z,18.00
2023-11-12T14:36:11.335Z,19.40
2023-11-12T14:38:38.237Z,18.80
2023-11-12T14:41:05.117Z,19.60
2023-11-12T14:43:38.403Z,19.30
2023-11-12T14:46:08.369Z,18.40
2023-11-12T14:48:35.647Z,18.90
2023-11-12T14:51:08.473Z,19.60
2023-11-12T14:53:34.974Z,20.10
2023-11-12T14:56:01.622Z,19.90
2023-11-12T14:58:28.184Z,19.40
2023-11-12T15:00:55.223Z,20.00
2023-11-12T15:03:23.590Z,19.30
2023-11-12T15:05:50.477Z,19.10
2023-11-12T15:08:16.956Z,19.80
2023-11-12T15:10:43.627Z,19.20
2023-11-12T15:13:10.253Z,19.90
2023-11-12T15:15:37.234Z,19.70
2023-11-12T15:18:04.488Z,18.90
2023-11-12T15:20:31.015Z,19.90
2023-11-12T15:22:57.523Z,19.00
2023-11-12T15:25:25.234Z,18.00
2023-11-12T15:27:51.896Z,18.10
2023-11-12T15:30:19.671Z,18.20
2023-11-12T15:32:46.777Z,18.80
2023-11-12T15:35:14.774Z,18.60
2023-11-12T15:37:41.551Z,18.50
2023-11-12T15:40:26.551Z,18.30
2023-11-12T15:42:56.977Z,18.30
2023-11-12T15:45:24.089Z,18.80
2023-11-12T15:47:51.031Z,19.30
2023-11-12T15:50:18.166Z,19.20
2023-11-12T15:52:45.774Z,19.20
2023-11-12T15:55:13.124Z,19.20
2023-11-12T15:57:41.266Z,20.10
2023-11-12T16:00:19.313Z,20.60
2023-11-12T16:02:47.627Z,20.20
2023-11-12T16:05:15.512Z,21.60
2023-11-12T16:07:43.511Z,22.40
2023-11-12T16:10:11.824Z,22.40
2023-11-12T16:12:38.785Z,22.20
2023-11-12T16:15:11.298Z,23.40
2023-11-12T16:17:38.948Z,23.50
2023-11-12T16:20:08.913Z,24.10
2023-11-12T16:22:38.701Z,22.10
2023-11-12T16:25:11.106Z,23.80
2023-11-12T16:27:38.659Z,23.50
2023-11-12T16:30:12.353Z,22.40
2023-11-12T16:32:39.129Z,22.60
2023-11-12T16:35:07.087Z,23.00
2023-11-12T16:37:33.966Z,22.10
2023-11-12T16:40:01.384Z,22.80
2023-11-12T16:42:28.904Z,22.60
2023-11-12T16:44:57.235Z,22.00
2023-11-12T16:47:24.213Z,23.00
2023-11-12T16:49:51.546Z,24.20
2023-11-12T16:52:18.300Z,24.30
2023-11-12T16:54:44.860Z,25.00
2023-11-12T16:57:11.538Z,25.40
2023-11-12T16:59:41.802Z,26.30
2023-11-12T17:02:11.637Z,25.80
2023-11-12T17:04:38.802Z,25.60
2023-11-12T17:07:08.899Z,25.00
2023-11-12T17:09:35.664Z,25.50
2023-11-12T17:12:02.214Z,25.20
2023-11-12T17:14:29.322Z,24.50
2023-11-12T17:16:55.948Z,24.80
2023-11-12T17:19:22.630Z,24.00
2023-11-12T17:21:50.958Z,23.90
2023-11-12T17:24:18.125Z,23.20
2023-11-12T17:26:46.426Z,21.90
2023-11-12T17:29:13.149Z,23.20
2023-11-12T17:31:39.757Z,23.00
2023-11-12T17:34:06.696Z,22.60
2023-11-12T17:36:36.581Z,21.20
2023-11-12T17:39:03.701Z,21.30
2023-11-12T17:41:30.289Z,21.10
2023-11-12T17:43:57.181Z,20.20
2023-11-12T17:46:23.886Z,20.30
2023-11-12T17:48:54.461Z,20.80
2023-11-12T17:51:22.465Z,20.30
2023-11-12T17:53:49.553Z,21.00
2023-11-12T17:56:16.091Z,20.80
2023-11-12T17:58:42.634Z,20.80
2023-11-12T18:01:09.607Z,21.00
2023-11-12T18:03:36.331Z,21.90
2023-11-12T18:06:05.906Z,21.00
2023-11-12T18:08:37.109Z,20.60
2023-11-12T18:11:04.620Z,20.50
2023-11-12T18:13:33.717Z,20.10
2023-11-12T18:16:01.817Z,19.80
2023-11-12T18:18:31.668Z,20.60
2023-11-12T18:20:59.820Z,20.40
2023-11-12T18:23:26.377Z,19.60
2023-11-12T18:25:53.115Z,19.20
2023-11-12T18:28:24.304Z,19.20
2023-11-12T18:30:53.762Z,19.90
2023-11-12T18:33:20.652Z,20.10
2023-11-12T18:35:47.936Z,20.00
2023-11-12T18:38:14.486Z,19.60
2023-11-12T18:40:41.274Z,20.30
2023-11-12T18:43:10.752Z,20.00
2023-11-12T18:45:37.812Z,19.70
2023-11-12T18:48:08.748Z,19.60
2023-11-12T18:50:37.677Z,19.70
2023-11-12T18:53:04.206Z,20.30
2023-11-12T18:55:31.016Z,20.50
2023-11-12T18:57:59.180Z,21.30
2023-11-12T19:00:25.867Z,20.90
2023-11-12T19:02:53.696Z,20.90
2023-11-12T19:05:22.148Z,20.00
2023-11-12T19:07:48.962Z,21.40
2023-11-12T19:10:16.916Z,21.40
2023-11-12T19:14:45.263Z,18.00
2023-11-12T19:17:13.404Z,21.00
2023-11-12T19:19:41.725Z,20.20
2023-11-12T19:22:12.248Z,20.50
2023-11-12T19:24:40.127Z,20.30
2023-11-12T19:27:08.448Z,20.60
2023-11-12T19:29:36.398Z,20.50
2023-11-12T19:32:05.468Z,19.70
2023-11-12T19:34:35.582Z,20.00
2023-11-12T19:37:03.826Z,18.80
2023-11-12T19:39:31.754Z,20.30
2023-11-12T19:41:59.604Z,20.60
2023-11-12T19:44:27.544Z,20.40
2023-11-12T19:46:55.540Z,20.70
2023-11-12T19:49:24.025Z,22.60
2023-11-12T19:51:52.050Z,22.30
2023-11-12T19:54:21.689Z,22.50
2023-11-12T19:56:52.049Z,22.40
2023-11-12T19:59:20.142Z,22.50
2023-11-12T20:01:48.229Z,23.40
2023-11-12T20:04:16.341Z,22.10
2023-11-12T20:06:44.308Z,21.70
2023-11-12T20:09:12.322Z,21.70
2023-11-12T20:11:40.613Z,22.90
2023-11-12T20:14:08.659Z,22.40
2023-11-12T20:16:36.946Z,22.60
2023-11-12T20:19:07.154Z,22.20
2023-11-12T20:21:44.542Z,23.60
2023-11-12T20:24:12.956Z,23.40
2023-11-12T20:26:51.614Z,23.40
2023-11-12T20:29:23.230Z,24.10
2023-11-12T20:31:55.697Z,23.70
2023-11-12T20:34:24.099Z,24.50
2023-11-12T20:36:52.410Z,23.80
2023-11-12T20:39:21.679Z,24.60
2023-11-12T20:41:51.963Z,24.00
2023-11-12T20:44:21.053Z,24.60
2023-11-12T20:46:50.478Z,24.10
2023-11-12T20:49:19.425Z,23.70
2023-11-12T20:51:48.459Z,24.20
2023-11-12T20:54:17.380Z,24.60
2023-11-12T20:56:45.951Z,24.00
2023-11-12T20:59:14.428Z,23.80
2023-11-12T21:01:44.019Z,23.30
2023-11-12T21:04:13.503Z,24.00
2023-11-12T21:06:44.230Z,23.70
2023-11-12T21:09:13.482Z,23.70
2023-11-12T21:14:38.736Z,19.70
2023-11-12T21:17:07.155Z,22.60
2023-11-12T21:19:35.114Z,22.80
2023-11-12T21:22:02.981Z,21.90
2023-11-12T21:24:30.820Z,22.00
2023-11-12T21:26:58.930Z,22.10
2023-11-12T21:29:26.938Z,21.40
2023-11-12T21:31:55.450Z,22.00
2023-11-12T21:34:23.480Z,22.90
2023-11-12T21:36:51.511Z,23.00
2023-11-12T21:39:20.416Z,22.90
2023-11-12T21:41:49.243Z,24.00
2023-11-12T21:44:20.131Z,24.20
2023-11-12T21:54:30.969Z,20.70
2023-11-12T21:57:00.012Z,23.80
2023-11-12T21:59:26.498Z,24.30
2023-11-12T22:01:53.383Z,24.90
2023-11-12T22:04:22.251Z,25.60
2023-11-12T22:06:50.598Z,24.60
2023-11-12T22:09:18.078Z,25.00
2023-11-12T22:11:46.177Z,24.20
2023-11-12T22:14:13.736Z,23.80
2023-11-12T22:16:44.106Z,23.40
2023-11-12T22:19:12.509Z,22.90
2023-11-12T22:21:40.419Z,23.40
2023-11-12T22:24:07.712Z,23.00
2023-11-12T22:26:37.056Z,23.60
2023-11-12T22:29:03.624Z,23.30
2023-11-12T22:31:30.327Z,22.40
2023-11-12T22:33:57.098Z,21.50
2023-11-12T22:36:23.700Z,21.30
2023-11-12T22:38:50.196Z,21.30
2023-11-12T22:41:16.691Z,21.40
2023-11-12T22:43:43.295Z,22.20
2023-11-12T22:46:10.308Z,21.50
2023-11-12T22:48:37.439Z,21.90
2023-11-12T22:51:05.844Z,21.50
2023-11-12T22:53:32.561Z,20.70
2023-11-12T22:55:59.694Z,20.20
2023-11-12T22:58:30.136Z,21.20
2023-11-12T23:01:00.673Z,20.90
2023-11-12T23:03:29.163Z,20.60
2023-11-12T23:05:55.865Z,20.30
2023-11-12T23:08:22.383Z,20.00
2023-11-12T23:10:49.389Z,19.50
2023-11-12T23:13:19.771Z,19.30
2023-11-12T23:15:46.666Z,19.70
2023-11-12T23:18:13.419Z,19.20
2023-11-12T23:20:40.596Z,20.20
2023-11-12T23:23:07.249Z,19.60
2023-11-12T23:25:33.800Z,20.00
2023-11-12T23:28:00.498Z,19.40
2023-11-12T23:30:31.146Z,19.70
2023-11-12T23:32:57.717Z,19.90
2023-11-12T23:35:26.674Z,19.20
2023-11-12T23:37:53.305Z,19.70
2023-11-12T23:40:19.852Z,19.60
2023-11-12T23:42:46.346Z,18.70
2023-11-12T23:45:13.584Z,19.40
2023-11-12T23:47:40.262Z,19.40
2023-11-12T23:50:08.218Z,19.30
2023-11-12T23:52:34.700Z,19.40
2023-11-12T23:55:01.613Z,19.10
2023-11-12T23:57:28.109Z,19.50
2023-11-12T23:59:54.677Z,19.60
